CheckWX is a tool to help pilots better visualize weather data.  It is not intended as a substitute for an official pre-flight weather briefing.

02:06:36 UTC

KMDW TAF
Chicago Midway International Airport
Chicago, Illinois, USA
KMDW 122330Z 1300/1406 20014G20KT P6SM BKN070 OVC200 WS020/22045KT FM130200 21010KT P6SM OVC050 FM130800 22005KT P6SM BKN035 BKN150

Dec-13@
00:00 UTC

Dec-13 @ 00:00 UTC

Dec-13@
02:00 UTC

Dec-13 @ 02:00 UTC

KMDW 122330Z 1300/1406 20014G20KT P6SM BKN070 OVC200 WS020/22045KT

Expired

Wind
  • 200° at 14 KTS
  • {Gusting to 20 KTS
Cloud Levels
  • Broken at 7,000' AGL
  • Overcast at 20,000' AGL

Dec-13@
02:00 UTC

Dec-13 @ 02:00 UTC

Dec-13@
08:00 UTC

Dec-13 @ 08:00 UTC

FM130200 21010KT P6SM OVC050

From

From Standard forecast or significant change

Wind
  • 210° at 10 KTS
Cloud Levels
  • Overcast at 5,000' AGL

Dec-13@
08:00 UTC

Dec-13 @ 08:00 UTC

Dec-14@
06:00 UTC

Dec-14 @ 06:00 UTC

FM130800 22005KT P6SM BKN035 BKN150

From

From Standard forecast or significant change

Wind
  • 220° at 5 KTS
Cloud Levels
  • Broken at 3,500' AGL
  • Broken at 15,000' AGL